createdAt,value
2023-03-10T00:01:20.721Z,11.20
2023-03-10T00:03:49.897Z,11.20
2023-03-10T00:06:20.770Z,11.20
2023-03-10T00:08:49.455Z,11.20
2023-03-10T00:11:18.373Z,11.20
2023-03-10T00:13:47.194Z,11.10
2023-03-10T00:16:21.619Z,11.10
2023-03-10T00:18:50.424Z,11.00
2023-03-10T00:21:21.046Z,11.00
2023-03-10T00:23:49.305Z,11.10
2023-03-10T00:26:19.199Z,11.20
2023-03-10T00:28:47.682Z,11.20
2023-03-10T00:31:18.990Z,11.10
2023-03-10T00:33:49.500Z,11.20
2023-03-10T00:36:19.850Z,11.20
2023-03-10T00:38:51.506Z,11.30
2023-03-10T00:41:21.977Z,11.30
2023-03-10T00:43:50.683Z,11.20
2023-03-10T00:46:19.521Z,11.20
2023-03-10T00:48:49.366Z,11.20
2023-03-10T00:51:18.229Z,11.30
2023-03-10T00:53:46.958Z,11.30
2023-03-10T00:56:17.456Z,11.30
2023-03-10T00:58:46.737Z,11.40
2023-03-10T01:01:17.616Z,11.30
2023-03-10T01:03:46.302Z,11.20
2023-03-10T01:06:16.041Z,11.30
2023-03-10T01:08:44.340Z,11.30
2023-03-10T01:11:16.125Z,11.30
2023-03-10T01:13:44.630Z,11.20
2023-03-10T01:16:13.331Z,11.20
2023-03-10T01:18:43.301Z,11.30
2023-03-10T01:21:18.449Z,11.30
2023-03-10T01:23:46.946Z,11.20
2023-03-10T01:26:17.319Z,11.10
2023-03-10T01:28:46.927Z,11.30
2023-03-10T01:31:15.751Z,11.30
2023-03-10T01:33:44.474Z,11.30
2023-03-10T01:36:15.837Z,11.30
2023-03-10T01:38:46.279Z,11.30
2023-03-10T01:41:14.621Z,11.20
2023-03-10T01:43:43.981Z,11.30
2023-03-10T01:46:41.089Z,11.30
2023-03-10T01:49:29.740Z,11.20
2023-03-10T01:52:03.556Z,11.30
2023-03-10T01:54:40.346Z,11.20
2023-03-10T01:57:09.536Z,11.30
2023-03-10T01:59:37.828Z,11.20
2023-03-10T02:02:06.506Z,11.20
2023-03-10T02:04:38.211Z,11.20
2023-03-10T02:07:08.408Z,11.20
2023-03-10T02:09:41.870Z,11.20
2023-03-10T02:12:12.701Z,11.20
2023-03-10T02:14:42.003Z,11.20
2023-03-10T02:17:17.460Z,11.20
2023-03-10T02:19:59.461Z,11.20
2023-03-10T02:22:28.012Z,11.20
2023-03-10T02:25:03.069Z,11.10
2023-03-10T02:27:34.897Z,11.20
2023-03-10T02:30:06.610Z,11.20
2023-03-10T02:32:38.351Z,11.30
2023-03-10T02:35:07.449Z,11.20
2023-03-10T02:37:36.737Z,11.20
2023-03-10T02:40:23.987Z,11.10
2023-03-10T02:42:53.911Z,11.20
2023-03-10T02:45:22.202Z,11.20
2023-03-10T02:47:50.482Z,11.10
2023-03-10T02:50:19.902Z,11.10
2023-03-10T02:52:51.965Z,11.10
2023-03-10T02:55:20.517Z,11.10
2023-03-10T02:57:49.013Z,11.00
2023-03-10T03:00:19.220Z,11.00
2023-03-10T03:02:47.662Z,11.00
2023-03-10T03:05:15.789Z,11.00
2023-03-10T03:07:44.300Z,11.00
2023-03-10T03:10:13.288Z,11.00
2023-03-10T03:12:41.482Z,11.10
2023-03-10T03:15:10.335Z,11.10
2023-03-10T03:17:39.974Z,11.10
2023-03-10T03:20:14.578Z,11.10
2023-03-10T03:22:43.601Z,11.10
2023-03-10T03:25:14.129Z,11.00
2023-03-10T03:27:42.623Z,11.00
2023-03-10T03:30:14.119Z,11.00
2023-03-10T03:32:44.233Z,11.00
2023-03-10T03:35:14.547Z,11.00
2023-03-10T03:37:42.858Z,11.00
2023-03-10T03:40:13.328Z,11.00
2023-03-10T03:42:42.339Z,11.00
2023-03-10T03:45:11.950Z,11.00
2023-03-10T03:47:40.560Z,11.00
2023-03-10T03:50:13.169Z,11.00
2023-03-10T03:52:42.168Z,11.00
2023-03-10T03:55:13.113Z,10.90
2023-03-10T03:57:41.668Z,10.90
2023-03-10T04:00:14.317Z,10.90
2023-03-10T04:02:42.580Z,10.90
2023-03-10T04:05:12.888Z,11.00
2023-03-10T04:07:41.910Z,10.90
2023-03-10T04:10:11.800Z,10.90
2023-03-10T04:12:39.929Z,10.90
2023-03-10T04:15:09.463Z,11.00
2023-03-10T04:17:38.118Z,10.90
2023-03-10T04:20:08.701Z,11.00
2023-03-10T04:22:39.066Z,11.00
2023-03-10T04:25:08.921Z,10.90
2023-03-10T04:27:37.615Z,10.80
2023-03-10T04:30:07.365Z,10.80
2023-03-10T04:32:35.783Z,10.80
2023-03-10T04:35:04.111Z,10.80
2023-03-10T04:37:32.761Z,10.80
2023-03-10T04:40:02.527Z,10.80
2023-03-10T04:42:30.703Z,10.70
2023-03-10T04:44:59.767Z,10.80
2023-03-10T04:47:27.894Z,10.70
2023-03-10T04:49:56.022Z,10.80
2023-03-10T04:52:24.971Z,10.80
2023-03-10T04:54:53.164Z,10.80
2023-03-10T04:57:24.586Z,10.70
2023-03-10T04:59:53.397Z,10.60
2023-03-10T05:02:21.567Z,10.70
2023-03-10T05:04:49.986Z,10.80
2023-03-10T05:07:18.681Z,10.80
2023-03-10T05:09:46.815Z,10.80
2023-03-10T05:12:15.093Z,10.70
2023-03-10T05:14:45.037Z,10.80
2023-03-10T05:17:13.679Z,10.70
2023-03-10T05:19:42.006Z,10.70
2023-03-10T05:22:12.726Z,10.80
2023-03-10T05:24:40.956Z,10.70
2023-03-10T05:27:10.470Z,10.70
2023-03-10T05:29:40.315Z,10.70
2023-03-10T05:32:10.180Z,10.70
2023-03-10T05:34:38.454Z,10.60
2023-03-10T05:37:06.924Z,10.60
2023-03-10T05:39:35.120Z,10.70
2023-03-10T05:42:03.300Z,10.60
2023-03-10T05:44:31.972Z,10.70
2023-03-10T05:47:00.201Z,10.60
2023-03-10T05:49:29.897Z,10.50
2023-03-10T05:51:58.397Z,10.60
2023-03-10T05:54:26.742Z,10.60
2023-03-10T05:56:55.216Z,10.60
2023-03-10T05:59:23.906Z,10.60
2023-03-10T06:01:52.100Z,10.60
2023-03-10T06:04:20.315Z,10.50
2023-03-10T06:06:50.108Z,10.50
2023-03-10T06:09:18.295Z,10.60
2023-03-10T06:11:46.428Z,10.60
2023-03-10T06:14:14.896Z,10.60
2023-03-10T06:16:44.918Z,10.50
2023-03-10T06:19:13.104Z,10.60
2023-03-10T06:21:42.062Z,10.60
2023-03-10T06:24:11.822Z,10.60
2023-03-10T06:26:40.485Z,10.60
2023-03-10T06:29:09.080Z,10.60
2023-03-10T06:31:37.283Z,10.50
2023-03-10T06:34:05.839Z,10.50
2023-03-10T06:36:34.946Z,10.40
2023-03-10T06:39:03.089Z,10.40
2023-03-10T06:41:32.656Z,10.50
2023-03-10T06:44:00.988Z,10.50
2023-03-10T06:46:29.499Z,10.50
2023-03-10T06:48:57.802Z,10.40
2023-03-10T06:51:26.413Z,10.40
2023-03-10T06:53:55.248Z,10.30
2023-03-10T06:56:24.058Z,10.30
2023-03-10T06:58:53.786Z,10.30
2023-03-10T07:01:26.310Z,10.30
2023-03-10T07:03:55.506Z,10.30
2023-03-10T07:06:24.497Z,10.30
2023-03-10T07:08:53.320Z,10.30
2023-03-10T07:11:22.734Z,10.20
2023-03-10T07:13:51.097Z,10.20
2023-03-10T07:16:20.733Z,10.10
2023-03-10T07:18:49.317Z,10.10
2023-03-10T07:21:19.624Z,10.00
2023-03-10T07:23:48.320Z,9.90
2023-03-10T07:26:19.059Z,9.90
2023-03-10T07:28:47.975Z,9.90
2023-03-10T07:31:17.549Z,9.90
2023-03-10T07:33:47.557Z,10.00
2023-03-10T07:36:18.074Z,10.00
2023-03-10T07:38:46.852Z,10.00
2023-03-10T07:41:17.773Z,10.00
2023-03-10T07:43:46.197Z,10.00
2023-03-10T07:46:16.333Z,10.10
2023-03-10T07:48:46.616Z,10.10
2023-03-10T07:51:14.822Z,10.10
2023-03-10T07:53:43.332Z,10.00
2023-03-10T07:56:16.921Z,10.10
2023-03-10T07:58:45.157Z,10.00
2023-03-10T08:01:17.662Z,10.00
2023-03-10T08:03:47.852Z,10.00
2023-03-10T08:06:21.084Z,10.00
2023-03-10T08:08:49.438Z,10.00
2023-03-10T08:11:18.223Z,10.00
2023-03-10T08:13:48.262Z,10.00
2023-03-10T08:16:17.797Z,10.00
2023-03-10T08:18:47.509Z,10.00
2023-03-10T08:21:15.849Z,10.10
2023-03-10T08:23:43.988Z,10.10
2023-03-10T08:26:17.203Z,10.10
2023-03-10T08:28:46.274Z,10.10
2023-03-10T08:31:17.142Z,10.20
2023-03-10T08:33:47.674Z,10.20
2023-03-10T08:36:17.906Z,10.30
2023-03-10T08:38:46.392Z,10.30
2023-03-10T08:41:17.199Z,10.30
2023-03-10T08:43:48.458Z,10.20
2023-03-10T08:46:18.160Z,10.30
2023-03-10T08:48:48.372Z,10.30
2023-03-10T08:51:16.837Z,10.30
2023-03-10T08:53:47.791Z,10.30
2023-03-10T08:56:17.044Z,10.30
2023-03-10T08:58:45.399Z,10.30
2023-03-10T09:01:14.384Z,10.40
2023-03-10T09:03:44.658Z,10.40
2023-03-10T09:06:15.049Z,10.50
2023-03-10T09:08:43.974Z,10.40
2023-03-10T09:11:16.832Z,10.50
2023-03-10T09:13:45.146Z,10.50
2023-03-10T09:16:13.678Z,10.50
2023-03-10T09:18:44.878Z,10.60
2023-03-10T09:21:16.803Z,10.70
2023-03-10T09:23:48.001Z,10.80
2023-03-10T09:26:16.770Z,10.90
2023-03-10T09:28:44.938Z,10.80
2023-03-10T09:31:17.490Z,10.80
2023-03-10T09:33:48.231Z,10.80
2023-03-10T09:36:20.913Z,10.80
2023-03-10T09:38:49.415Z,10.80
2023-03-10T09:41:38.539Z,10.80
2023-03-10T09:44:23.030Z,10.80
2023-03-10T09:47:02.020Z,10.80
2023-03-10T09:49:35.059Z,10.80
2023-03-10T09:52:17.093Z,10.80
2023-03-10T09:54:54.165Z,10.80
2023-03-10T09:57:24.535Z,10.90
2023-03-10T09:59:56.730Z,11.00
2023-03-10T10:02:29.253Z,11.20
2023-03-10T10:05:03.882Z,11.20
2023-03-10T10:07:44.266Z,11.20
2023-03-10T10:10:18.905Z,11.20
2023-03-10T10:12:48.708Z,11.10
2023-03-10T10:15:21.908Z,11.10
2023-03-10T10:18:18.086Z,11.10
2023-03-10T10:20:51.694Z,11.10
2023-03-10T10:23:25.714Z,11.30
2023-03-10T10:25:54.844Z,11.30
2023-03-10T10:28:32.892Z,11.30
2023-03-10T10:31:16.433Z,11.20
2023-03-10T10:33:56.515Z,11.20
2023-03-10T10:36:26.129Z,11.20
2023-03-10T10:38:57.694Z,11.30
2023-03-10T10:41:30.797Z,11.40
2023-03-10T10:44:06.749Z,11.30
2023-03-10T10:46:35.456Z,11.40
2023-03-10T10:49:06.211Z,11.40
2023-03-10T10:51:38.009Z,11.50
2023-03-10T10:54:28.218Z,11.50
2023-03-10T10:56:59.078Z,11.50
2023-03-10T10:59:30.938Z,11.40
2023-03-10T11:02:00.957Z,11.50
2023-03-10T11:04:31.388Z,11.50
2023-03-10T11:07:20.098Z,11.30
2023-03-10T11:09:49.954Z,11.10
2023-03-10T11:12:23.283Z,10.90
2023-03-10T11:15:07.916Z,10.70
2023-03-10T11:17:41.816Z,10.60
2023-03-10T11:20:24.412Z,10.40
2023-03-10T11:23:01.379Z,10.30
2023-03-10T11:25:37.965Z,10.20
2023-03-10T11:28:20.295Z,10.10
2023-03-10T11:30:52.933Z,9.90
2023-03-10T11:33:29.309Z,9.80
2023-03-10T11:36:01.236Z,9.70
2023-03-10T11:38:38.796Z,9.70
2023-03-10T11:41:14.440Z,9.50
2023-03-10T11:43:56.355Z,9.50
2023-03-10T11:46:29.798Z,9.50
2023-03-10T11:49:07.770Z,9.50
2023-03-10T11:51:40.314Z,9.40
2023-03-10T11:54:15.639Z,9.30
2023-03-10T11:56:45.761Z,9.30
2023-03-10T11:59:19.132Z,9.30
2023-03-10T12:01:53.055Z,9.20
2023-03-10T12:04:25.106Z,9.20
2023-03-10T12:06:58.679Z,9.30
2023-03-10T12:09:38.940Z,9.20
2023-03-10T12:12:15.004Z,9.20
2023-03-10T12:14:45.421Z,9.20
2023-03-10T12:17:15.772Z,9.20
2023-03-10T12:20:25.156Z,9.10
2023-03-10T12:22:54.606Z,9.00
2023-03-10T12:25:46.212Z,9.00
2023-03-10T12:28:24.490Z,8.90
2023-03-10T12:30:56.546Z,8.90
2023-03-10T12:34:01.672Z,8.80
2023-03-10T12:36:40.719Z,8.70
2023-03-10T12:39:42.703Z,8.60
2023-03-10T12:42:31.566Z,8.40
2023-03-10T12:45:24.270Z,8.40
2023-03-10T12:47:59.075Z,8.40
2023-03-10T12:50:43.324Z,8.40
2023-03-10T12:53:30.333Z,8.50
2023-03-10T12:56:20.027Z,8.50
2023-03-10T12:58:56.307Z,8.50
2023-03-10T13:01:32.368Z,8.40
2023-03-10T13:04:01.080Z,8.40
2023-03-10T13:06:34.793Z,8.40
2023-03-10T13:09:11.398Z,8.40
2023-03-10T13:11:43.002Z,8.40
2023-03-10T13:14:14.592Z,8.50
2023-03-10T13:16:54.570Z,8.50
2023-03-10T13:19:25.404Z,8.40
2023-03-10T13:21:54.328Z,7.80
2023-03-10T13:24:25.861Z,7.20
2023-03-10T13:27:08.942Z,6.70
2023-03-10T13:29:37.282Z,6.50
2023-03-10T13:32:08.226Z,6.40
2023-03-10T13:34:37.025Z,6.10
2023-03-10T13:37:07.427Z,5.80
2023-03-10T13:39:35.686Z,5.60
2023-03-10T13:42:06.894Z,5.50
2023-03-10T13:44:40.864Z,5.50
2023-03-10T13:47:18.975Z,5.40
2023-03-10T13:49:50.541Z,5.30
2023-03-10T13:52:21.693Z,5.30
2023-03-10T13:54:50.543Z,5.20
2023-03-10T13:57:23.988Z,5.30
2023-03-10T13:59:53.565Z,5.10
2023-03-10T14:02:28.549Z,5.00
2023-03-10T14:04:58.504Z,4.90
2023-03-10T14:07:29.629Z,4.80
2023-03-10T14:10:16.120Z,4.80
2023-03-10T14:12:46.766Z,4.80
2023-03-10T14:15:24.473Z,4.90
2023-03-10T14:18:18.620Z,4.80
2023-03-10T14:20:48.036Z,4.80
2023-03-10T14:23:38.090Z,4.90
2023-03-10T14:26:16.199Z,4.80
2023-03-10T14:28:45.192Z,4.70
2023-03-10T14:31:21.532Z,4.60
2023-03-10T14:33:51.866Z,4.40
2023-03-10T14:36:20.151Z,4.30
2023-03-10T14:38:48.316Z,4.20
2023-03-10T14:41:20.353Z,4.20
2023-03-10T14:43:48.675Z,4.20
2023-03-10T14:46:17.123Z,4.30
2023-03-10T14:48:46.257Z,4.20
2023-03-10T14:51:32.645Z,4.10
2023-03-10T14:54:03.379Z,4.10
2023-03-10T14:56:32.954Z,4.20
2023-03-10T14:59:02.468Z,4.20
2023-03-10T15:01:31.658Z,4.10
2023-03-10T15:04:00.269Z,4.20
2023-03-10T15:06:30.144Z,4.30
2023-03-10T15:08:58.348Z,4.30
2023-03-10T15:11:37.123Z,4.40
2023-03-10T15:14:11.652Z,4.30
2023-03-10T15:16:40.274Z,4.30
2023-03-10T15:19:13.611Z,4.30
2023-03-10T15:21:43.532Z,4.20
2023-03-10T15:24:11.932Z,4.20
2023-03-10T15:26:40.169Z,4.20
2023-03-10T15:29:08.732Z,4.10
2023-03-10T15:31:36.965Z,4.10
2023-03-10T15:34:05.347Z,4.00
2023-03-10T15:36:34.395Z,3.90
2023-03-10T15:39:05.187Z,3.80
2023-03-10T15:41:36.479Z,3.70
2023-03-10T15:44:08.181Z,3.80
2023-03-10T15:46:36.380Z,3.80
2023-03-10T15:49:04.927Z,3.80
2023-03-10T15:51:33.613Z,3.70
2023-03-10T15:54:03.654Z,3.70
2023-03-10T15:56:34.116Z,3.80
2023-03-10T15:59:02.850Z,3.90
2023-03-10T16:01:31.441Z,4.00
2023-03-10T16:04:02.009Z,3.90
2023-03-10T16:06:30.654Z,3.90
2023-03-10T16:08:58.898Z,4.00
2023-03-10T16:11:28.999Z,3.90
2023-03-10T16:13:57.498Z,4.00
2023-03-10T16:16:26.495Z,4.00
2023-03-10T16:18:55.319Z,4.00
2023-03-10T16:21:23.763Z,4.00
2023-03-10T16:23:51.920Z,3.90
2023-03-10T16:26:22.637Z,4.00
2023-03-10T16:28:54.149Z,4.10
2023-03-10T16:31:24.125Z,4.00
2023-03-10T16:33:52.637Z,4.10
2023-03-10T16:36:22.838Z,4.20
2023-03-10T16:38:53.625Z,4.20
2023-03-10T16:41:23.599Z,4.10
2023-03-10T16:43:54.674Z,4.20
2023-03-10T16:46:26.341Z,4.20
2023-03-10T16:48:55.872Z,4.30
2023-03-10T16:51:29.343Z,4.40
2023-03-10T16:53:59.507Z,4.40
2023-03-10T16:56:29.158Z,4.40
2023-03-10T16:58:59.579Z,4.30
2023-03-10T17:01:28.172Z,4.20
2023-03-10T17:03:56.993Z,4.10
2023-03-10T17:06:28.137Z,4.10
2023-03-10T17:08:58.429Z,4.00
2023-03-10T17:11:28.640Z,4.00
2023-03-10T17:14:00.266Z,4.10
2023-03-10T17:16:31.049Z,4.00
2023-03-10T17:19:01.321Z,3.90
2023-03-10T17:21:32.764Z,3.70
2023-03-10T17:24:01.244Z,3.70
2023-03-10T17:26:29.758Z,3.70
2023-03-10T17:28:59.728Z,3.80
2023-03-10T17:31:29.384Z,3.60
2023-03-10T17:33:59.612Z,3.60
2023-03-10T17:36:28.722Z,3.50
2023-03-10T17:38:58.326Z,3.50
2023-03-10T17:41:27.061Z,3.40
2023-03-10T17:43:55.939Z,3.40
2023-03-10T17:46:28.179Z,3.40
2023-03-10T17:48:56.774Z,3.40
2023-03-10T17:51:27.064Z,3.40
2023-03-10T17:53:57.478Z,3.40
2023-03-10T17:56:25.856Z,3.20
2023-03-10T17:58:54.538Z,3.10
2023-03-10T18:01:27.616Z,3.00
2023-03-10T18:03:56.493Z,3.00
2023-03-10T18:06:27.399Z,3.00
2023-03-10T18:08:56.765Z,3.00
2023-03-10T18:11:25.600Z,3.10
2023-03-10T18:13:54.048Z,3.20
2023-03-10T18:16:24.227Z,3.20
2023-03-10T18:18:54.235Z,3.20
2023-03-10T18:21:23.262Z,3.10
2023-03-10T18:23:53.686Z,3.10
2023-03-10T18:26:24.421Z,3.00
2023-03-10T18:28:52.906Z,2.90
2023-03-10T18:31:23.242Z,3.00
2023-03-10T18:33:51.562Z,3.00
2023-03-10T18:36:24.078Z,3.00
2023-03-10T18:38:53.707Z,3.00
2023-03-10T18:41:24.387Z,3.10
2023-03-10T18:43:53.129Z,3.20
2023-03-10T18:46:22.379Z,3.20
2023-03-10T18:48:55.673Z,3.40
2023-03-10T18:51:27.167Z,3.40
2023-03-10T18:53:55.885Z,3.50
2023-03-10T18:56:26.044Z,3.60
2023-03-10T18:58:54.686Z,3.60
2023-03-10T19:01:23.136Z,3.50
2023-03-10T19:03:51.920Z,3.30
2023-03-10T19:06:20.697Z,3.10
2023-03-10T19:08:53.244Z,3.00
2023-03-10T19:11:24.656Z,3.10
2023-03-10T19:13:53.019Z,2.90
2023-03-10T19:16:22.583Z,2.70
2023-03-10T19:18:51.292Z,2.70
2023-03-10T19:21:21.924Z,2.60
2023-03-10T19:23:52.810Z,2.70
2023-03-10T19:26:21.358Z,2.60
2023-03-10T19:28:49.640Z,2.60
2023-03-10T19:31:18.542Z,2.50
2023-03-10T19:33:46.854Z,2.50
2023-03-10T19:36:15.511Z,2.60
2023-03-10T19:38:45.269Z,2.60
2023-03-10T19:41:16.977Z,2.60
2023-03-10T19:43:46.287Z,2.70
2023-03-10T19:46:16.100Z,2.70
2023-03-10T19:48:45.010Z,2.60
2023-03-10T19:51:21.438Z,2.70
2023-03-10T19:53:51.245Z,2.60
2023-03-10T19:56:21.959Z,2.60
2023-03-10T19:58:51.045Z,2.60
2023-03-10T20:01:23.459Z,2.70
2023-03-10T20:03:52.687Z,2.70
2023-03-10T20:06:21.502Z,2.80
2023-03-10T20:08:49.851Z,2.80
2023-03-10T20:11:19.720Z,2.80
2023-03-10T20:13:50.284Z,2.80
2023-03-10T20:16:20.476Z,2.80
2023-03-10T20:18:48.865Z,2.90
2023-03-10T20:21:17.392Z,2.90
2023-03-10T20:23:48.003Z,3.00
2023-03-10T20:26:17.265Z,3.10
2023-03-10T20:28:45.914Z,3.20
2023-03-10T20:31:18.726Z,3.20
2023-03-10T20:33:47.317Z,3.10
2023-03-10T20:36:16.063Z,3.00
2023-03-10T20:38:45.791Z,3.10
2023-03-10T20:41:15.252Z,3.00
2023-03-10T20:43:44.482Z,3.10
2023-03-10T20:46:13.600Z,3.10
2023-03-10T20:48:43.612Z,3.10
2023-03-10T20:51:15.110Z,3.10
2023-03-10T20:53:43.489Z,3.30
2023-03-10T20:56:14.372Z,3.30
2023-03-10T20:58:44.696Z,3.30
2023-03-10T21:01:16.983Z,3.20
2023-03-10T21:03:47.251Z,3.10
2023-03-10T21:06:15.496Z,3.10
2023-03-10T21:08:43.681Z,3.00
2023-03-10T21:11:12.237Z,3.00
2023-03-10T21:13:40.830Z,3.00
2023-03-10T21:16:09.681Z,3.10
2023-03-10T21:18:38.346Z,3.20
2023-03-10T21:21:09.838Z,3.20
2023-03-10T21:23:39.603Z,3.20
2023-03-10T21:26:12.178Z,3.10
2023-03-10T21:28:41.151Z,3.10
2023-03-10T21:31:09.866Z,3.20
2023-03-10T21:33:38.415Z,3.20
2023-03-10T21:36:09.187Z,3.10
2023-03-10T21:38:37.737Z,3.20
2023-03-10T21:41:08.341Z,3.00
2023-03-10T21:43:36.696Z,3.10
2023-03-10T21:46:05.204Z,3.00
2023-03-10T21:48:33.540Z,2.80
2023-03-10T21:51:01.733Z,2.80
2023-03-10T21:53:31.449Z,2.90
2023-03-10T21:56:00.872Z,2.80
2023-03-10T21:58:29.200Z,2.80
2023-03-10T22:00:57.600Z,2.80
2023-03-10T22:03:26.126Z,2.80
2023-03-10T22:05:54.501Z,2.80
2023-03-10T22:08:23.015Z,2.80
2023-03-10T22:10:52.786Z,2.80
2023-03-10T22:13:21.043Z,2.90
2023-03-10T22:15:49.332Z,3.00
2023-03-10T22:18:18.072Z,3.00
2023-03-10T22:20:46.454Z,3.00
2023-03-10T22:23:14.685Z,3.00
2023-03-10T22:25:43.006Z,2.90
2023-03-10T22:28:12.695Z,2.90
2023-03-10T22:30:41.393Z,2.90
2023-03-10T22:33:10.132Z,3.00
2023-03-10T22:35:38.893Z,2.90
2023-03-10T22:38:07.839Z,2.90
2023-03-10T22:40:36.340Z,2.80
2023-03-10T22:43:07.090Z,2.80
2023-03-10T22:45:36.985Z,2.80
2023-03-10T22:48:07.346Z,2.80
2023-03-10T22:50:37.458Z,2.80
2023-03-10T22:53:08.722Z,2.80
2023-03-10T22:55:37.194Z,2.90
2023-03-10T22:58:06.520Z,2.80
2023-03-10T23:00:36.929Z,2.80
2023-03-10T23:03:07.320Z,2.80
2023-03-10T23:05:36.106Z,2.80
2023-03-10T23:08:04.566Z,2.70
2023-03-10T23:10:35.170Z,2.70
2023-03-10T23:13:05.373Z,2.70
2023-03-10T23:15:36.118Z,2.70
2023-03-10T23:18:07.405Z,2.70
2023-03-10T23:20:38.176Z,2.70
2023-03-10T23:23:08.789Z,2.70
2023-03-10T23:25:39.809Z,2.80
2023-03-10T23:28:10.353Z,2.70
2023-03-10T23:30:41.100Z,2.70
2023-03-10T23:33:13.480Z,2.60
2023-03-10T23:35:42.299Z,2.70
2023-03-10T23:38:10.846Z,2.60
2023-03-10T23:40:39.625Z,2.60
2023-03-10T23:43:09.253Z,2.70
2023-03-10T23:45:38.726Z,2.60
2023-03-10T23:48:10.435Z,2.60
2023-03-10T23:50:42.594Z,2.60
2023-03-10T23:53:13.825Z,2.60
2023-03-10T23:55:43.880Z,2.60
2023-03-10T23:58:12.857Z,2.50
